Terminal Aerodrome Forecast
Issued by NWS

Home | Current Version | Previous Version | Text Only | Print | Product List | Glossary On
Versions: 1 2 3 4 5 6 7 8 9 10 11 12 13 14 15 16 17
369
FTUS44 KMAF 230539
TAFHOB
TAF
KHOB 230539Z 2306/2406 07010KT P6SM SCT040 BKN150
      TEMPO 2310/2312 BKN015=

USA.gov is the U.S. government's official web portal to all federal, state and local government web resources and services.